sensor_id;sensor_type;location;lat;lon;timestamp;pressure;altitude;pressure_sealevel;temperature;humidity
77793;BME280;66983;51.438;5.438;2023-05-10T00:02:20;100776.06;;;13.79;88.64
77793;BME280;66983;51.438;5.438;2023-05-10T00:04:45;100768.09;;;13.78;89.54
77793;BME280;66983;51.438;5.438;2023-05-10T00:07:11;100768.81;;;13.81;88.72
77793;BME280;66983;51.438;5.438;2023-05-10T00:09:36;100772.28;;;13.83;89.33
77793;BME280;66983;51.438;5.438;2023-05-10T00:12:02;100774.88;;;13.85;89.93
77793;BME280;66983;51.438;5.438;2023-05-10T00:14:27;100769.50;;;13.85;88.35
77793;BME280;66983;51.438;5.438;2023-05-10T00:16:53;100765.03;;;13.85;89.52
77793;BME280;66983;51.438;5.438;2023-05-10T00:19:18;100763.22;;;13.86;87.87
77793;BME280;66983;51.438;5.438;2023-05-10T00:21:44;100765.97;;;13.84;89.40
77793;BME280;66983;51.438;5.438;2023-05-10T00:24:10;100769.50;;;13.85;88.54
77793;BME280;66983;51.438;5.438;2023-05-10T00:26:35;100768.66;;;13.84;89.77
77793;BME280;66983;51.438;5.438;2023-05-10T00:29:01;100772.97;;;13.87;90.31
77793;BME280;66983;51.438;5.438;2023-05-10T00:31:26;100773.91;;;13.86;88.92
77793;BME280;66983;51.438;5.438;2023-05-10T00:33:52;100769.50;;;13.85;88.85
77793;BME280;66983;51.438;5.438;2023-05-10T00:36:18;100773.84;;;13.87;89.78
77793;BME280;66983;51.438;5.438;2023-05-10T00:38:43;100776.59;;;13.86;88.39
77793;BME280;66983;51.438;5.438;2023-05-10T00:41:09;100768.47;;;13.87;89.46
77793;BME280;66983;51.438;5.438;2023-05-10T00:43:36;100778.25;;;13.88;88.63
77793;BME280;66983;51.438;5.438;2023-05-10T00:46:04;100764.63;;;13.93;90.03
77793;BME280;66983;51.438;5.438;2023-05-10T00:48:29;100768.16;;;13.93;89.74
77793;BME280;66983;51.438;5.438;2023-05-10T00:50:55;100784.41;;;13.90;90.29
77793;BME280;66983;51.438;5.438;2023-05-10T00:53:21;100769.09;;;13.92;90.65
77793;BME280;66983;51.438;5.438;2023-05-10T00:55:47;100767.47;;;13.90;90.02
77793;BME280;66983;51.438;5.438;2023-05-10T00:58:13;100762.97;;;13.90;90.36
77793;BME280;66983;51.438;5.438;2023-05-10T01:00:41;100770.91;;;13.92;90.86
77793;BME280;66983;51.438;5.438;2023-05-10T01:03:10;100766.50;;;13.91;89.24
77793;BME280;66983;51.438;5.438;2023-05-10T01:05:36;100763.91;;;13.89;89.50
77793;BME280;66983;51.438;5.438;2023-05-10T01:08:01;100764.94;;;13.87;90.98
77793;BME280;66983;51.438;5.438;2023-05-10T01:10:30;100767.63;;;13.87;89.62
77793;BME280;66983;51.438;5.438;2023-05-10T01:12:56;100771.16;;;13.87;91.20
77793;BME280;66983;51.438;5.438;2023-05-10T01:15:22;100771.09;;;13.89;90.63
77793;BME280;66983;51.438;5.438;2023-05-10T01:17:48;100762.00;;;13.91;89.56
77793;BME280;66983;51.438;5.438;2023-05-10T01:20:14;100769.97;;;13.93;89.58
77793;BME280;66983;51.438;5.438;2023-05-10T01:22:53;100765.47;;;13.93;90.48
77793;BME280;66983;51.438;5.438;2023-05-10T01:26:00;100759.25;;;13.93;89.34
77793;BME280;66983;51.438;5.438;2023-05-10T01:28:58;100762.97;;;13.90;89.57
77793;BME280;66983;51.438;5.438;2023-05-10T01:34:09;100761.94;;;13.93;90.53
77793;BME280;66983;51.438;5.438;2023-05-10T01:37:15;100767.38;;;13.91;90.13
77793;BME280;66983;51.438;5.438;2023-05-10T01:39:45;100762.97;;;13.90;90.98
77793;BME280;66983;51.438;5.438;2023-05-10T01:42:23;100753.28;;;13.88;90.89
77793;BME280;66983;51.438;5.438;2023-05-10T01:47:44;100760.44;;;13.87;91.23
77793;BME280;66983;51.438;5.438;2023-05-10T01:50:24;100759.59;;;13.87;91.05
77793;BME280;66983;51.438;5.438;2023-05-10T01:52:57;100765.72;;;13.89;90.14
77793;BME280;66983;51.438;5.438;2023-05-10T01:55:28;100762.09;;;13.90;90.99
77793;BME280;66983;51.438;5.438;2023-05-10T02:01:12;100763.84;;;13.91;89.42
77793;BME280;66983;51.438;5.438;2023-05-10T02:03:42;100767.47;;;13.90;90.48
77793;BME280;66983;51.438;5.438;2023-05-10T02:06:10;100767.38;;;13.91;90.47
77793;BME280;66983;51.438;5.438;2023-05-10T02:08:40;100770.22;;;13.88;89.50
77793;BME280;66983;51.438;5.438;2023-05-10T02:11:07;100766.75;;;13.86;90.11
77793;BME280;66983;51.438;5.438;2023-05-10T02:13:38;100773.84;;;13.87;89.99
77793;BME280;66983;51.438;5.438;2023-05-10T02:16:06;100772.13;;;13.86;90.24
77793;BME280;66983;51.438;5.438;2023-05-10T02:18:34;100783.00;;;13.83;89.43
77793;BME280;66983;51.438;5.438;2023-05-10T02:21:02;100783.00;;;13.83;89.70
77793;BME280;66983;51.438;5.438;2023-05-10T02:23:29;100783.16;;;13.80;89.60
77793;BME280;66983;51.438;5.438;2023-05-10T02:25:58;100791.34;;;13.77;90.75
77793;BME280;66983;51.438;5.438;2023-05-10T02:28:27;100793.25;;;13.75;89.55
77793;BME280;66983;51.438;5.438;2023-05-10T02:30:55;100793.44;;;13.72;89.89
77793;BME280;66983;51.438;5.438;2023-05-10T02:33:22;100786.50;;;13.68;89.70
77793;BME280;66983;51.438;5.438;2023-05-10T02:35:48;100790.19;;;13.66;90.31
77793;BME280;66983;51.438;5.438;2023-05-10T02:38:17;100782.41;;;13.61;90.03
77793;BME280;66983;51.438;5.438;2023-05-10T02:40:44;100795.78;;;13.61;89.77
77793;BME280;66983;51.438;5.438;2023-05-10T02:43:14;100792.25;;;13.61;90.68
77793;BME280;66983;51.438;5.438;2023-05-10T02:45:43;100801.94;;;13.63;90.44
77793;BME280;66983;51.438;5.438;2023-05-10T02:48:09;100801.78;;;13.66;89.52
77793;BME280;66983;51.438;5.438;2023-05-10T02:50:37;100798.16;;;13.67;90.72
77793;BME280;66983;51.438;5.438;2023-05-10T02:53:10;100804.38;;;13.68;89.45
77793;BME280;66983;51.438;5.438;2023-05-10T02:55:39;100804.38;;;13.68;90.13
77793;BME280;66983;51.438;5.438;2023-05-10T02:58:07;100811.63;;;13.66;90.67
77793;BME280;66983;51.438;5.438;2023-05-10T03:00:32;100799.09;;;13.66;89.96
77793;BME280;66983;51.438;5.438;2023-05-10T03:02:58;100805.41;;;13.65;90.83
77793;BME280;66983;51.438;5.438;2023-05-10T03:05:25;100805.56;;;13.62;90.49
77793;BME280;66983;51.438;5.438;2023-05-10T03:07:52;100803.81;;;13.61;89.61
77793;BME280;66983;51.438;5.438;2023-05-10T03:10:19;100801.31;;;13.58;90.19
77793;BME280;66983;51.438;5.438;2023-05-10T03:13:13;100804.91;;;13.57;90.27
77793;BME280;66983;51.438;5.438;2023-05-10T03:16:06;100796.97;;;13.55;91.31
77793;BME280;66983;51.438;5.438;2023-05-10T03:18:56;100803.09;;;13.57;90.56
77793;BME280;66983;51.438;5.438;2023-05-10T03:21:28;100807.69;;;13.55;90.71
77793;BME280;66983;51.438;5.438;2023-05-10T03:24:07;100805.88;;;13.56;91.04
77793;BME280;66983;51.438;5.438;2023-05-10T03:26:37;100812.09;;;13.56;90.32
77793;BME280;66983;51.438;5.438;2023-05-10T03:29:08;100805.25;;;13.51;90.12
77793;BME280;66983;51.438;5.438;2023-05-10T03:31:35;100805.34;;;13.49;90.83
77793;BME280;66983;51.438;5.438;2023-05-10T03:34:01;100812.59;;;13.47;91.40
77793;BME280;66983;51.438;5.438;2023-05-10T03:36:27;100815.19;;;13.49;90.90
77793;BME280;66983;51.438;5.438;2023-05-10T03:38:53;100812.50;;;13.49;90.12
77793;BME280;66983;51.438;5.438;2023-05-10T03:41:19;100824.09;;;13.49;91.32
77793;BME280;66983;51.438;5.438;2023-05-10T03:43:46;100816.06;;;13.49;91.41
77793;BME280;66983;51.438;5.438;2023-05-10T03:46:12;100822.28;;;13.50;90.14
77793;BME280;66983;51.438;5.438;2023-05-10T03:48:37;100826.75;;;13.49;90.80
77793;BME280;66983;51.438;5.438;2023-05-10T03:51:06;100823.22;;;13.49;90.98
77793;BME280;66983;51.438;5.438;2023-05-10T03:53:32;100823.16;;;13.50;91.20
77793;BME280;66983;51.438;5.438;2023-05-10T03:55:57;100830.19;;;13.51;91.12
77793;BME280;66983;51.438;5.438;2023-05-10T03:58:23;100823.03;;;13.52;91.55
77793;BME280;66983;51.438;5.438;2023-05-10T04:00:49;100822.28;;;13.50;91.16
77793;BME280;66983;51.438;5.438;2023-05-10T04:03:14;100831.25;;;13.49;89.76
77793;BME280;66983;51.438;5.438;2023-05-10T04:05:40;100832.03;;;13.51;89.80
77793;BME280;66983;51.438;5.438;2023-05-10T04:08:06;100830.13;;;13.53;90.27
77793;BME280;66983;51.438;5.438;2023-05-10T04:10:31;100835.56;;;13.51;89.60
77793;BME280;66983;51.438;5.438;2023-05-10T04:12:57;100832.03;;;13.51;90.99
77793;BME280;66983;51.438;5.438;2023-05-10T04:15:23;100830.53;;;13.45;90.65
77793;BME280;66983;51.438;5.438;2023-05-10T04:17:49;100831.63;;;13.41;90.94
77793;BME280;66983;51.438;5.438;2023-05-10T04:20:15;100832.81;;;13.36;89.71
77793;BME280;66983;51.438;5.438;2023-05-10T04:22:41;100832.00;;;13.34;90.14
77793;BME280;66983;51.438;5.438;2023-05-10T04:25:07;100832.09;;;13.32;90.61
77793;BME280;66983;51.438;5.438;2023-05-10T04:27:33;100838.31;;;13.33;90.82
77793;BME280;66983;51.438;5.438;2023-05-10T04:29:58;100831.28;;;13.30;89.68
77793;BME280;66983;51.438;5.438;2023-05-10T04:32:24;100832.31;;;13.28;89.54
77793;BME280;66983;51.438;5.438;2023-05-10T04:34:49;100832.38;;;13.26;89.27
77793;BME280;66983;51.438;5.438;2023-05-10T04:37:16;100832.38;;;13.26;89.54
77793;BME280;66983;51.438;5.438;2023-05-10T04:39:42;100828.84;;;13.25;89.76
77793;BME280;66983;51.438;5.438;2023-05-10T04:42:08;100832.38;;;13.26;89.85
77793;BME280;66983;51.438;5.438;2023-05-10T04:44:33;100837.84;;;13.24;89.86
77793;BME280;66983;51.438;5.438;2023-05-10T04:47:00;100837.84;;;13.24;88.43
77793;BME280;66983;51.438;5.438;2023-05-10T04:49:28;100833.44;;;13.23;88.89
77793;BME280;66983;51.438;5.438;2023-05-10T04:51:53;100837.84;;;13.24;90.15
77793;BME280;66983;51.438;5.438;2023-05-10T04:54:19;100840.59;;;13.23;88.12
77793;BME280;66983;51.438;5.438;2023-05-10T04:56:45;100847.75;;;13.22;88.33
77793;BME280;66983;51.438;5.438;2023-05-10T04:59:10;100848.72;;;13.21;88.67
77793;BME280;66983;51.438;5.438;2023-05-10T05:01:36;100853.13;;;13.22;87.89
77793;BME280;66983;51.438;5.438;2023-05-10T05:04:01;100855.78;;;13.22;87.71
77793;BME280;66983;51.438;5.438;2023-05-10T05:06:27;100845.16;;;13.21;87.91
77793;BME280;66983;51.438;5.438;2023-05-10T05:08:53;100842.56;;;13.19;86.98
77793;BME280;66983;51.438;5.438;2023-05-10T05:11:18;100843.50;;;13.18;86.87
77793;BME280;66983;51.438;5.438;2023-05-10T05:13:44;100840.59;;;13.23;88.60
77793;BME280;66983;51.438;5.438;2023-05-10T05:16:09;100851.13;;;13.26;88.83
77793;BME280;66983;51.438;5.438;2023-05-10T05:18:36;100867.19;;;13.26;86.74
77793;BME280;66983;51.438;5.438;2023-05-10T05:21:02;100854.59;;;13.28;87.69
77793;BME280;66983;51.438;5.438;2023-05-10T05:23:27;100867.91;;;13.30;87.48
77793;BME280;66983;51.438;5.438;2023-05-10T05:25:53;100863.56;;;13.27;86.58
77793;BME280;66983;51.438;5.438;2023-05-10T05:28:20;100869.09;;;13.24;87.74
77793;BME280;66983;51.438;5.438;2023-05-10T05:30:46;100873.41;;;13.27;87.64
77793;BME280;66983;51.438;5.438;2023-05-10T05:33:13;100868.91;;;13.27;87.41
77793;BME280;66983;51.438;5.438;2023-05-10T05:35:39;100876.94;;;13.27;87.32
77793;BME280;66983;51.438;5.438;2023-05-10T05:38:05;100877.81;;;13.28;86.71
77793;BME280;66983;51.438;5.438;2023-05-10T05:40:31;100874.19;;;13.29;88.85
77793;BME280;66983;51.438;5.438;2023-05-10T05:42:56;100877.53;;;13.34;87.20
77793;BME280;66983;51.438;5.438;2023-05-10T05:45:22;100879.19;;;13.36;87.31
77793;BME280;66983;51.438;5.438;2023-05-10T05:47:47;100875.78;;;13.33;86.97
77793;BME280;66983;51.438;5.438;2023-05-10T05:50:13;100889.16;;;13.33;88.38
77793;BME280;66983;51.438;5.438;2023-05-10T05:52:39;100882.94;;;13.32;86.45
77793;BME280;66983;51.438;5.438;2023-05-10T05:55:05;100887.44;;;13.32;86.66
77793;BME280;66983;51.438;5.438;2023-05-10T05:57:30;100892.00;;;13.30;87.00
77793;BME280;66983;51.438;5.438;2023-05-10T05:59:56;100887.59;;;13.29;87.17
77793;BME280;66983;51.438;5.438;2023-05-10T06:02:21;100892.78;;;13.32;87.88
77793;BME280;66983;51.438;5.438;2023-05-10T06:04:47;100887.28;;;13.35;87.84
77793;BME280;66983;51.438;5.438;2023-05-10T06:07:12;100892.34;;;13.41;87.44
77793;BME280;66983;51.438;5.438;2023-05-10T06:09:38;100899.44;;;13.42;86.77
77793;BME280;66983;51.438;5.438;2023-05-10T06:12:04;100900.16;;;13.45;88.38
77793;BME280;66983;51.438;5.438;2023-05-10T06:14:29;100900.09;;;13.47;86.12
77793;BME280;66983;51.438;5.438;2023-05-10T06:16:55;100909.84;;;13.48;86.58
77793;BME280;66983;51.438;5.438;2023-05-10T06:19:20;100908.13;;;13.47;86.15
77793;BME280;66983;51.438;5.438;2023-05-10T06:21:46;100910.88;;;13.45;86.97
77793;BME280;66983;51.438;5.438;2023-05-10T06:24:11;100917.00;;;13.47;87.66
77793;BME280;66983;51.438;5.438;2023-05-10T06:26:37;100911.41;;;13.52;88.38
77793;BME280;66983;51.438;5.438;2023-05-10T06:29:03;100917.63;;;13.52;86.89
77793;BME280;66983;51.438;5.438;2023-05-10T06:31:28;100919.34;;;13.53;86.87
77793;BME280;66983;51.438;5.438;2023-05-10T06:33:54;100929.91;;;13.56;88.26
77793;BME280;66983;51.438;5.438;2023-05-10T06:36:19;100920.94;;;13.57;86.87
77793;BME280;66983;51.438;5.438;2023-05-10T06:38:45;100921.66;;;13.61;88.45
77793;BME280;66983;51.438;5.438;2023-05-10T06:41:10;100921.59;;;13.63;87.16
77793;BME280;66983;51.438;5.438;2023-05-10T06:43:36;100922.22;;;13.68;87.81
77793;BME280;66983;51.438;5.438;2023-05-10T06:46:05;100926.25;;;13.76;87.97
77793;BME280;66983;51.438;5.438;2023-05-10T06:48:31;100934.91;;;13.81;86.90
77793;BME280;66983;51.438;5.438;2023-05-10T06:50:56;100930.25;;;13.85;87.50
77793;BME280;66983;51.438;5.438;2023-05-10T06:53:22;100927.50;;;13.86;86.21
77793;BME280;66983;51.438;5.438;2023-05-10T06:55:49;100931.84;;;13.89;86.68
77793;BME280;66983;51.438;5.438;2023-05-10T06:58:14;100933.66;;;13.88;86.28
77793;BME280;66983;51.438;5.438;2023-05-10T07:00:40;100936.41;;;13.87;86.58
77793;BME280;66983;51.438;5.438;2023-05-10T07:03:08;100942.00;;;13.82;86.09
77793;BME280;66983;51.438;5.438;2023-05-10T07:05:33;100944.84;;;13.79;86.83
77793;BME280;66983;51.438;5.438;2023-05-10T07:07:59;100948.38;;;13.80;86.63
77793;BME280;66983;51.438;5.438;2023-05-10T07:10:25;100945.63;;;13.81;85.47
77793;BME280;66983;51.438;5.438;2023-05-10T07:12:50;100950.69;;;13.87;87.17
77793;BME280;66983;51.438;5.438;2023-05-10T07:15:16;100950.53;;;13.90;85.96
77793;BME280;66983;51.438;5.438;2023-05-10T07:17:42;100947.84;;;13.90;86.63
77793;BME280;66983;51.438;5.438;2023-05-10T07:20:08;100955.03;;;13.90;87.21
77793;BME280;66983;51.438;5.438;2023-05-10T07:22:33;100952.25;;;13.91;85.13
77793;BME280;66983;51.438;5.438;2023-05-10T07:24:59;100963.13;;;13.88;86.31
77793;BME280;66983;51.438;5.438;2023-05-10T07:27:25;100974.56;;;13.92;85.69
77793;BME280;66983;51.438;5.438;2023-05-10T07:29:50;100971.75;;;13.95;86.48
77793;BME280;66983;51.438;5.438;2023-05-10T07:32:16;100972.84;;;13.91;86.05
77793;BME280;66983;51.438;5.438;2023-05-10T07:34:41;100965.03;;;13.86;85.49
77793;BME280;66983;51.438;5.438;2023-05-10T07:37:07;100967.69;;;13.86;86.03
77793;BME280;66983;51.438;5.438;2023-05-10T07:39:33;100974.72;;;13.89;84.73
77793;BME280;66983;51.438;5.438;2023-05-10T07:41:58;100964.94;;;13.88;84.65
77793;BME280;66983;51.438;5.438;2023-05-10T07:44:24;100962.97;;;13.91;85.65
77793;BME280;66983;51.438;5.438;2023-05-10T07:46:49;100971.03;;;13.91;83.89
77793;BME280;66983;51.438;5.438;2023-05-10T07:49:15;100974.56;;;13.92;83.70
77793;BME280;66983;51.438;5.438;2023-05-10T07:51:41;100979.34;;;13.85;84.76
77793;BME280;66983;51.438;5.438;2023-05-10T07:54:07;100983.94;;;13.83;84.89
77793;BME280;66983;51.438;5.438;2023-05-10T07:56:33;100986.47;;;13.86;84.58
77793;BME280;66983;51.438;5.438;2023-05-10T07:58:59;100991.88;;;13.85;84.81
77793;BME280;66983;51.438;5.438;2023-05-10T08:01:26;100996.38;;;13.84;85.21
77793;BME280;66983;51.438;5.438;2023-05-10T08:03:51;100992.91;;;13.82;83.35
77793;BME280;66983;51.438;5.438;2023-05-10T08:06:19;100999.94;;;13.85;85.56
77793;BME280;66983;51.438;5.438;2023-05-10T08:08:47;100999.69;;;13.89;83.68
77793;BME280;66983;51.438;5.438;2023-05-10T08:11:19;101002.22;;;13.92;83.05
77793;BME280;66983;51.438;5.438;2023-05-10T08:13:46;101003.09;;;13.93;83.13
77793;BME280;66983;51.438;5.438;2023-05-10T08:16:12;101012.81;;;13.96;83.78
77793;BME280;66983;51.438;5.438;2023-05-10T08:18:38;101012.66;;;13.99;83.18
77793;BME280;66983;51.438;5.438;2023-05-10T08:21:04;101016.34;;;13.96;83.25
77793;BME280;66983;51.438;5.438;2023-05-10T08:23:30;101022.66;;;13.95;83.40
77793;BME280;66983;51.438;5.438;2023-05-10T08:25:56;101027.16;;;13.95;82.79
77793;BME280;66983;51.438;5.438;2023-05-10T08:28:21;101035.25;;;13.93;83.09
77793;BME280;66983;51.438;5.438;2023-05-10T08:30:47;101025.41;;;13.93;82.88
77793;BME280;66983;51.438;5.438;2023-05-10T08:33:13;101033.22;;;13.98;84.77
77793;BME280;66983;51.438;5.438;2023-05-10T08:35:38;101026.66;;;14.04;82.98
77793;BME280;66983;51.438;5.438;2023-05-10T08:38:04;101033.59;;;14.08;83.95
77793;BME280;66983;51.438;5.438;2023-05-10T08:40:29;101023.59;;;14.11;83.77
77793;BME280;66983;51.438;5.438;2023-05-10T08:42:59;101028.59;;;14.19;84.25
77793;BME280;66983;51.438;5.438;2023-05-10T08:45:32;101034.75;;;14.21;82.24
77793;BME280;66983;51.438;5.438;2023-05-10T08:48:01;101027.50;;;14.23;82.32
77793;BME280;66983;51.438;5.438;2023-05-10T08:50:27;101034.44;;;14.27;80.97
77793;BME280;66983;51.438;5.438;2023-05-10T08:52:59;101036.94;;;14.30;80.57
77793;BME280;66983;51.438;5.438;2023-05-10T08:55:25;101034.16;;;14.32;79.37
77793;BME280;66983;51.438;5.438;2023-05-10T08:57:51;101035.91;;;14.33;79.58
77793;BME280;66983;51.438;5.438;2023-05-10T09:00:17;101038.44;;;14.36;78.94
77793;BME280;66983;51.438;5.438;2023-05-10T09:02:44;101044.50;;;14.39;79.47
77793;BME280;66983;51.438;5.438;2023-05-10T09:05:12;101039.16;;;14.39;79.75
77793;BME280;66983;51.438;5.438;2023-05-10T09:07:37;101040.59;;;14.46;79.91
77793;BME280;66983;51.438;5.438;2023-05-10T09:10:04;101036.94;;;14.65;80.50
77793;BME280;66983;51.438;5.438;2023-05-10T09:12:30;101047.66;;;14.82;79.96
77793;BME280;66983;51.438;5.438;2023-05-10T09:14:59;101048.28;;;14.87;78.61
77793;BME280;66983;51.438;5.438;2023-05-10T09:17:28;101055.22;;;14.91;78.98
77793;BME280;66983;51.438;5.438;2023-05-10T09:20:02;101049.84;;;14.91;79.62
77793;BME280;66983;51.438;5.438;2023-05-10T09:22:35;101048.91;;;14.92;79.50
77793;BME280;66983;51.438;5.438;2023-05-10T09:25:08;101053.25;;;14.94;79.16
77793;BME280;66983;51.438;5.438;2023-05-10T09:27:35;101051.34;;;14.97;79.33
77793;BME280;66983;51.438;5.438;2023-05-10T09:30:02;101060.81;;;15.04;78.37
77793;BME280;66983;51.438;5.438;2023-05-10T09:32:39;101054.13;;;15.11;79.25
77793;BME280;66983;51.438;5.438;2023-05-10T09:35:16;101053.72;;;15.18;79.12
77793;BME280;66983;51.438;5.438;2023-05-10T09:37:44;101054.34;;;15.23;79.49
77793;BME280;66983;51.438;5.438;2023-05-10T09:40:28;101056.63;;;15.31;77.89
77793;BME280;66983;51.438;5.438;2023-05-10T09:43:05;101059.03;;;15.36;78.57
77793;BME280;66983;51.438;5.438;2023-05-10T09:45:33;101049.78;;;15.41;78.78
77793;BME280;66983;51.438;5.438;2023-05-10T09:48:00;101060.97;;;15.49;79.41
77793;BME280;66983;51.438;5.438;2023-05-10T09:50:28;101063.75;;;15.48;77.58
77793;BME280;66983;51.438;5.438;2023-05-10T09:52:55;101069.34;;;15.43;78.21
77793;BME280;66983;51.438;5.438;2023-05-10T09:55:25;101063.13;;;15.43;78.52
77793;BME280;66983;51.438;5.438;2023-05-10T09:58:01;101065.03;;;15.41;78.54
77793;BME280;66983;51.438;5.438;2023-05-10T10:00:28;101061.63;;;15.37;78.69
77793;BME280;66983;51.438;5.438;2023-05-10T10:02:58;101065.34;;;15.35;78.72
77793;BME280;66983;51.438;5.438;2023-05-10T10:05:35;101067.88;;;15.38;78.99
77793;BME280;66983;51.438;5.438;2023-05-10T10:08:03;101070.31;;;15.42;78.05
77793;BME280;66983;51.438;5.438;2023-05-10T10:10:31;101072.13;;;15.42;75.74
77793;BME280;66983;51.438;5.438;2023-05-10T10:12:57;101068.31;;;15.46;77.37
77793;BME280;66983;51.438;5.438;2023-05-10T10:15:24;101068.00;;;15.52;77.04
77793;BME280;66983;51.438;5.438;2023-05-10T10:17:51;101065.75;;;15.60;76.14
77793;BME280;66983;51.438;5.438;2023-05-10T10:20:18;101064.81;;;15.61;75.58
77793;BME280;66983;51.438;5.438;2023-05-10T10:22:44;101057.53;;;15.63;74.14
77793;BME280;66983;51.438;5.438;2023-05-10T10:25:16;101062.38;;;15.72;75.13
77793;BME280;66983;51.438;5.438;2023-05-10T10:28:04;101054.75;;;15.80;74.26
77793;BME280;66983;51.438;5.438;2023-05-10T10:30:46;101064.97;;;15.89;74.27
77793;BME280;66983;51.438;5.438;2023-05-10T10:36:00;101058.38;;;16.11;73.77
77793;BME280;66983;51.438;5.438;2023-05-10T10:38:59;101063.19;;;16.20;74.37
77793;BME280;66983;51.438;5.438;2023-05-10T10:41:37;101063.38;;;16.17;72.67
77793;BME280;66983;51.438;5.438;2023-05-10T10:47:06;101061.75;;;15.99;73.65
77793;BME280;66983;51.438;5.438;2023-05-10T10:57:26;101059.41;;;16.08;73.88
77793;BME280;66983;51.438;5.438;2023-05-10T11:05:36;101068.94;;;16.14;73.52
77793;BME280;66983;51.438;5.438;2023-05-10T11:08:28;101067.88;;;16.16;74.25
77793;BME280;66983;51.438;5.438;2023-05-10T11:13:45;101060.69;;;16.17;73.89
77793;BME280;66983;51.438;5.438;2023-05-10T11:16:14;101066.94;;;16.17;73.11
77793;BME280;66983;51.438;5.438;2023-05-10T11:21:19;101077.09;;;16.12;75.58
77793;BME280;66983;51.438;5.438;2023-05-10T11:23:51;101067.41;;;16.10;77.08
77793;BME280;66983;51.438;5.438;2023-05-10T11:26:18;101074.31;;;16.14;77.74
77793;BME280;66983;51.438;5.438;2023-05-10T11:28:45;101069.53;;;16.19;76.42
77793;BME280;66983;51.438;5.438;2023-05-10T11:31:14;101071.53;;;16.15;75.62
77793;BME280;66983;51.438;5.438;2023-05-10T11:33:50;101073.63;;;16.10;76.83
77793;BME280;66983;51.438;5.438;2023-05-10T11:36:18;101082.56;;;16.11;76.55
77793;BME280;66983;51.438;5.438;2023-05-10T11:38:45;101068.53;;;16.06;77.21
77793;BME280;66983;51.438;5.438;2023-05-10T11:41:12;101077.47;;;16.06;76.42
77793;BME280;66983;51.438;5.438;2023-05-10T11:43:39;101074.69;;;16.08;75.76
77793;BME280;66983;51.438;5.438;2023-05-10T11:46:07;101072.09;;;16.06;76.45
77793;BME280;66983;51.438;5.438;2023-05-10T11:48:33;101068.78;;;16.01;76.71
77793;BME280;66983;51.438;5.438;2023-05-10T11:51:00;101081.78;;;15.93;75.18
77793;BME280;66983;51.438;5.438;2023-05-10T11:53:27;101087.50;;;15.87;76.48
77793;BME280;66983;51.438;5.438;2023-05-10T11:55:53;101096.03;;;15.79;75.82
77793;BME280;66983;51.438;5.438;2023-05-10T11:58:19;101090.03;;;15.74;75.74
77793;BME280;66983;51.438;5.438;2023-05-10T12:00:46;101098.28;;;15.71;74.45
77793;BME280;66983;51.438;5.438;2023-05-10T12:03:11;101100.00;;;15.72;75.82
77793;BME280;66983;51.438;5.438;2023-05-10T12:05:37;101091.00;;;15.73;77.50
77793;BME280;66983;51.438;5.438;2023-05-10T12:08:14;101093.69;;;15.73;76.43
77793;BME280;66983;51.438;5.438;2023-05-10T12:10:40;101093.50;;;15.76;76.86
77793;BME280;66983;51.438;5.438;2023-05-10T12:13:10;101097.31;;;15.72;75.91
77793;BME280;66983;51.438;5.438;2023-05-10T12:15:37;101092.72;;;15.74;77.16
77793;BME280;66983;51.438;5.438;2023-05-10T12:18:02;101103.94;;;15.82;76.73
77793;BME280;66983;51.438;5.438;2023-05-10T12:20:28;101106.06;;;15.91;77.58
77793;BME280;66983;51.438;5.438;2023-05-10T12:22:58;101113.53;;;16.02;77.17
77793;BME280;66983;51.438;5.438;2023-05-10T12:25:30;101101.41;;;16.11;78.76
77793;BME280;66983;51.438;5.438;2023-05-10T12:27:58;101100.06;;;16.18;77.58
77793;BME280;66983;51.438;5.438;2023-05-10T12:30:28;101100.84;;;16.20;76.56
77793;BME280;66983;51.438;5.438;2023-05-10T12:33:21;101104.50;;;16.19;73.35
77793;BME280;66983;51.438;5.438;2023-05-10T12:35:48;101121.53;;;16.04;73.02
77793;BME280;66983;51.438;5.438;2023-05-10T12:38:35;101122.38;;;16.04;72.64
77793;BME280;66983;51.438;5.438;2023-05-10T12:41:04;101118.06;;;16.02;73.71
77793;BME280;66983;51.438;5.438;2023-05-10T12:43:31;101124.72;;;15.94;73.38
77793;BME280;66983;51.438;5.438;2023-05-10T12:45:57;101124.66;;;15.80;72.72
77793;BME280;66983;51.438;5.438;2023-05-10T12:48:23;101133.75;;;15.78;72.24
77793;BME280;66983;51.438;5.438;2023-05-10T12:50:48;101120.81;;;15.69;73.50
77793;BME280;66983;51.438;5.438;2023-05-10T12:53:15;101130.69;;;15.68;74.76
77793;BME280;66983;51.438;5.438;2023-05-10T12:55:44;101133.78;;;15.60;73.49
77793;BME280;66983;51.438;5.438;2023-05-10T12:58:10;101126.94;;;15.55;72.15
77793;BME280;66983;51.438;5.438;2023-05-10T13:00:35;101130.72;;;15.51;74.40
77793;BME280;66983;51.438;5.438;2023-05-10T13:03:06;101128.22;;;15.48;74.27
77793;BME280;66983;51.438;5.438;2023-05-10T13:05:32;101125.69;;;15.45;75.44
77793;BME280;66983;51.438;5.438;2023-05-10T13:07:58;101129.31;;;15.44;76.52
77793;BME280;66983;51.438;5.438;2023-05-10T13:10:23;101138.09;;;15.47;76.68
77793;BME280;66983;51.438;5.438;2023-05-10T13:12:50;101132.81;;;15.46;76.99
77793;BME280;66983;51.438;5.438;2023-05-10T13:15:16;101133.59;;;15.48;77.34
77793;BME280;66983;51.438;5.438;2023-05-10T13:17:42;101136.03;;;15.52;79.05
77793;BME280;66983;51.438;5.438;2023-05-10T13:20:08;101129.78;;;15.52;78.01
77793;BME280;66983;51.438;5.438;2023-05-10T13:22:35;101143.22;;;15.52;79.11
77793;BME280;66983;51.438;5.438;2023-05-10T13:25:01;101147.66;;;15.53;79.28
77793;BME280;66983;51.438;5.438;2023-05-10T13:27:27;101149.47;;;15.52;79.19
77793;BME280;66983;51.438;5.438;2023-05-10T13:29:53;101149.00;;;15.44;79.27